sensor_id;sensor_type;location;lat;lon;timestamp;P1;durP1;ratioP1;P2;durP2;ratioP2
23586;SDS011;11971;51.148;4.104;2022-08-25T00:00:16;15.38;;;13.45;;
23586;SDS011;11971;51.148;4.104;2022-08-25T00:02:44;19.58;;;14.55;;
23586;SDS011;11971;51.148;4.104;2022-08-25T00:05:11;16.52;;;13.80;;
23586;SDS011;11971;51.148;4.104;2022-08-25T00:07:39;16.50;;;14.32;;
23586;SDS011;11971;51.148;4.104;2022-08-25T00:10:08;17.67;;;13.35;;
23586;SDS011;11971;51.148;4.104;2022-08-25T00:12:35;16.67;;;14.50;;
23586;SDS011;11971;51.148;4.104;2022-08-25T00:15:03;16.90;;;14.60;;
23586;SDS011;11971;51.148;4.104;2022-08-25T00:17:30;17.50;;;14.20;;
23586;SDS011;11971;51.148;4.104;2022-08-25T00:19:58;24.58;;;15.32;;
23586;SDS011;11971;51.148;4.104;2022-08-25T00:22:25;17.23;;;14.32;;
23586;SDS011;11971;51.148;4.104;2022-08-25T00:24:53;18.63;;;14.70;;
23586;SDS011;11971;51.148;4.104;2022-08-25T00:27:21;18.92;;;14.95;;
23586;SDS011;11971;51.148;4.104;2022-08-25T00:32:46;17.95;;;14.85;;
23586;SDS011;11971;51.148;4.104;2022-08-25T00:35:14;18.27;;;15.40;;
23586;SDS011;11971;51.148;4.104;2022-08-25T00:37:41;19.65;;;15.30;;
23586;SDS011;11971;51.148;4.104;2022-08-25T00:40:09;22.77;;;16.83;;
23586;SDS011;11971;51.148;4.104;2022-08-25T00:42:38;20.15;;;17.25;;
23586;SDS011;11971;51.148;4.104;2022-08-25T00:45:06;20.08;;;17.02;;
23586;SDS011;11971;51.148;4.104;2022-08-25T00:47:33;22.50;;;16.58;;
23586;SDS011;11971;51.148;4.104;2022-08-25T00:50:02;22.30;;;18.25;;
23586;SDS011;11971;51.148;4.104;2022-08-25T00:52:31;24.38;;;18.60;;
23586;SDS011;11971;51.148;4.104;2022-08-25T00:55:08;21.20;;;17.50;;
23586;SDS011;11971;51.148;4.104;2022-08-25T00:57:39;28.70;;;19.15;;
23586;SDS011;11971;51.148;4.104;2022-08-25T01:00:13;26.30;;;20.05;;
23586;SDS011;11971;51.148;4.104;2022-08-25T01:02:41;24.17;;;20.52;;
23586;SDS011;11971;51.148;4.104;2022-08-25T01:05:11;25.50;;;19.67;;
23586;SDS011;11971;51.148;4.104;2022-08-25T01:07:39;22.52;;;19.65;;
23586;SDS011;11971;51.148;4.104;2022-08-25T01:10:07;25.98;;;20.35;;
23586;SDS011;11971;51.148;4.104;2022-08-25T01:12:57;26.45;;;20.83;;
23586;SDS011;11971;51.148;4.104;2022-08-25T01:15:25;22.33;;;19.58;;
23586;SDS011;11971;51.148;4.104;2022-08-25T01:17:54;25.15;;;20.17;;
23586;SDS011;11971;51.148;4.104;2022-08-25T01:20:22;24.45;;;19.02;;
23586;SDS011;11971;51.148;4.104;2022-08-25T01:22:51;25.17;;;20.25;;
23586;SDS011;11971;51.148;4.104;2022-08-25T01:25:21;21.75;;;19.20;;
23586;SDS011;11971;51.148;4.104;2022-08-25T01:27:50;25.35;;;20.35;;
23586;SDS011;11971;51.148;4.104;2022-08-25T01:30:18;26.05;;;19.17;;
23586;SDS011;11971;51.148;4.104;2022-08-25T01:32:45;23.15;;;18.08;;
23586;SDS011;11971;51.148;4.104;2022-08-25T01:35:13;20.20;;;17.27;;
23586;SDS011;11971;51.148;4.104;2022-08-25T01:37:40;24.30;;;16.63;;
23586;SDS011;11971;51.148;4.104;2022-08-25T01:40:12;18.63;;;16.08;;
23586;SDS011;11971;51.148;4.104;2022-08-25T01:42:42;21.80;;;15.25;;
23586;SDS011;11971;51.148;4.104;2022-08-25T01:45:12;21.70;;;15.95;;
23586;SDS011;11971;51.148;4.104;2022-08-25T01:47:40;17.52;;;15.02;;
23586;SDS011;11971;51.148;4.104;2022-08-25T01:50:07;16.70;;;14.40;;
23586;SDS011;11971;51.148;4.104;2022-08-25T01:52:36;17.27;;;13.98;;
23586;SDS011;11971;51.148;4.104;2022-08-25T01:55:05;20.27;;;13.65;;
23586;SDS011;11971;51.148;4.104;2022-08-25T01:57:34;15.65;;;12.63;;
23586;SDS011;11971;51.148;4.104;2022-08-25T02:00:03;16.20;;;12.77;;
23586;SDS011;11971;51.148;4.104;2022-08-25T02:02:30;17.73;;;12.93;;
23586;SDS011;11971;51.148;4.104;2022-08-25T02:04:58;16.42;;;13.07;;
23586;SDS011;11971;51.148;4.104;2022-08-25T02:07:25;20.50;;;13.73;;
23586;SDS011;11971;51.148;4.104;2022-08-25T02:09:54;20.13;;;14.25;;
23586;SDS011;11971;51.148;4.104;2022-08-25T02:12:21;20.55;;;14.45;;
23586;SDS011;11971;51.148;4.104;2022-08-25T02:14:50;17.92;;;14.85;;
23586;SDS011;11971;51.148;4.104;2022-08-25T02:17:18;16.85;;;14.57;;
23586;SDS011;11971;51.148;4.104;2022-08-25T02:19:45;17.17;;;12.75;;
23586;SDS011;11971;51.148;4.104;2022-08-25T02:22:12;18.33;;;14.27;;
23586;SDS011;11971;51.148;4.104;2022-08-25T02:24:40;16.92;;;14.45;;
23586;SDS011;11971;51.148;4.104;2022-08-25T02:27:07;17.23;;;13.60;;
23586;SDS011;11971;51.148;4.104;2022-08-25T02:29:34;17.08;;;14.80;;
23586;SDS011;11971;51.148;4.104;2022-08-25T02:32:04;17.67;;;15.05;;
23586;SDS011;11971;51.148;4.104;2022-08-25T02:36:59;17.45;;;14.32;;
23586;SDS011;11971;51.148;4.104;2022-08-25T02:39:27;19.20;;;14.38;;
23586;SDS011;11971;51.148;4.104;2022-08-25T02:41:54;20.38;;;14.80;;
23586;SDS011;11971;51.148;4.104;2022-08-25T02:44:24;17.00;;;14.25;;
23586;SDS011;11971;51.148;4.104;2022-08-25T02:46:51;18.38;;;13.43;;
23586;SDS011;11971;51.148;4.104;2022-08-25T02:49:19;15.35;;;13.07;;
23586;SDS011;11971;51.148;4.104;2022-08-25T02:51:47;15.82;;;13.40;;
23586;SDS011;11971;51.148;4.104;2022-08-25T02:54:14;19.23;;;14.32;;
23586;SDS011;11971;51.148;4.104;2022-08-25T02:56:41;18.75;;;14.80;;
23586;SDS011;11971;51.148;4.104;2022-08-25T02:59:09;18.33;;;14.27;;
23586;SDS011;11971;51.148;4.104;2022-08-25T03:01:36;19.27;;;15.68;;
23586;SDS011;11971;51.148;4.104;2022-08-25T03:04:03;18.27;;;14.50;;
23586;SDS011;11971;51.148;4.104;2022-08-25T03:06:32;14.98;;;13.40;;
23586;SDS011;11971;51.148;4.104;2022-08-25T03:08:59;18.45;;;14.90;;
23586;SDS011;11971;51.148;4.104;2022-08-25T03:11:27;17.05;;;15.25;;
23586;SDS011;11971;51.148;4.104;2022-08-25T03:13:55;18.20;;;15.97;;
23586;SDS011;11971;51.148;4.104;2022-08-25T03:16:23;18.65;;;15.32;;
23586;SDS011;11971;51.148;4.104;2022-08-25T03:18:50;19.88;;;16.38;;
23586;SDS011;11971;51.148;4.104;2022-08-25T03:21:17;23.58;;;17.02;;
23586;SDS011;11971;51.148;4.104;2022-08-25T03:23:46;20.08;;;16.85;;
23586;SDS011;11971;51.148;4.104;2022-08-25T03:26:14;22.45;;;17.77;;
23586;SDS011;11971;51.148;4.104;2022-08-25T03:29:13;19.70;;;16.00;;
23586;SDS011;11971;51.148;4.104;2022-08-25T03:31:41;18.02;;;15.68;;
23586;SDS011;11971;51.148;4.104;2022-08-25T03:34:09;21.70;;;16.88;;
23586;SDS011;11971;51.148;4.104;2022-08-25T03:36:36;17.85;;;15.85;;
23586;SDS011;11971;51.148;4.104;2022-08-25T03:39:05;20.00;;;15.70;;
23586;SDS011;11971;51.148;4.104;2022-08-25T03:41:33;19.77;;;16.48;;
23586;SDS011;11971;51.148;4.104;2022-08-25T03:44:01;23.40;;;17.45;;
23586;SDS011;11971;51.148;4.104;2022-08-25T03:46:30;21.85;;;17.98;;
23586;SDS011;11971;51.148;4.104;2022-08-25T03:48:59;24.60;;;19.07;;
23586;SDS011;11971;51.148;4.104;2022-08-25T03:51:28;25.50;;;20.38;;
23586;SDS011;11971;51.148;4.104;2022-08-25T03:53:56;25.25;;;19.23;;
23586;SDS011;11971;51.148;4.104;2022-08-25T03:56:25;28.57;;;20.93;;
23586;SDS011;11971;51.148;4.104;2022-08-25T03:58:53;28.77;;;21.48;;
23586;SDS011;11971;51.148;4.104;2022-08-25T04:01:20;24.58;;;20.08;;
23586;SDS011;11971;51.148;4.104;2022-08-25T04:03:48;31.20;;;20.45;;
23586;SDS011;11971;51.148;4.104;2022-08-25T04:06:16;25.60;;;19.80;;
23586;SDS011;11971;51.148;4.104;2022-08-25T04:08:43;25.55;;;20.70;;
23586;SDS011;11971;51.148;4.104;2022-08-25T04:11:12;25.75;;;20.25;;
23586;SDS011;11971;51.148;4.104;2022-08-25T04:13:41;23.08;;;19.63;;
23586;SDS011;11971;51.148;4.104;2022-08-25T04:16:10;23.63;;;19.23;;
23586;SDS011;11971;51.148;4.104;2022-08-25T04:18:46;23.03;;;19.90;;
23586;SDS011;11971;51.148;4.104;2022-08-25T04:21:14;32.20;;;21.50;;
23586;SDS011;11971;51.148;4.104;2022-08-25T04:23:42;25.92;;;21.60;;
23586;SDS011;11971;51.148;4.104;2022-08-25T04:26:09;25.58;;;21.10;;
23586;SDS011;11971;51.148;4.104;2022-08-25T04:28:37;27.42;;;21.83;;
23586;SDS011;11971;51.148;4.104;2022-08-25T04:31:06;25.90;;;21.77;;
23586;SDS011;11971;51.148;4.104;2022-08-25T04:33:34;26.92;;;20.92;;
23586;SDS011;11971;51.148;4.104;2022-08-25T04:36:02;27.10;;;21.60;;
23586;SDS011;11971;51.148;4.104;2022-08-25T04:38:30;25.10;;;20.70;;
23586;SDS011;11971;51.148;4.104;2022-08-25T04:41:02;26.33;;;20.25;;
23586;SDS011;11971;51.148;4.104;2022-08-25T04:43:31;26.97;;;20.37;;
23586;SDS011;11971;51.148;4.104;2022-08-25T04:45:58;26.05;;;19.67;;
23586;SDS011;11971;51.148;4.104;2022-08-25T04:48:28;26.38;;;19.60;;
23586;SDS011;11971;51.148;4.104;2022-08-25T04:50:56;24.33;;;19.13;;
23586;SDS011;11971;51.148;4.104;2022-08-25T04:53:24;24.65;;;19.55;;
23586;SDS011;11971;51.148;4.104;2022-08-25T04:55:51;27.35;;;20.13;;
23586;SDS011;11971;51.148;4.104;2022-08-25T04:58:18;27.17;;;19.88;;
23586;SDS011;11971;51.148;4.104;2022-08-25T05:00:46;25.83;;;18.10;;
23586;SDS011;11971;51.148;4.104;2022-08-25T05:03:13;23.42;;;18.90;;
23586;SDS011;11971;51.148;4.104;2022-08-25T05:05:43;21.92;;;17.63;;
23586;SDS011;11971;51.148;4.104;2022-08-25T05:08:10;25.55;;;19.65;;
23586;SDS011;11971;51.148;4.104;2022-08-25T05:10:38;24.02;;;17.92;;
23586;SDS011;11971;51.148;4.104;2022-08-25T05:13:05;20.88;;;16.33;;
23586;SDS011;11971;51.148;4.104;2022-08-25T05:15:33;20.70;;;16.65;;
23586;SDS011;11971;51.148;4.104;2022-08-25T05:18:15;20.88;;;17.05;;
23586;SDS011;11971;51.148;4.104;2022-08-25T05:20:53;19.83;;;16.75;;
23586;SDS011;11971;51.148;4.104;2022-08-25T05:25:48;19.65;;;16.02;;
23586;SDS011;11971;51.148;4.104;2022-08-25T05:28:16;19.80;;;16.40;;
23586;SDS011;11971;51.148;4.104;2022-08-25T05:30:43;26.73;;;15.57;;
23586;SDS011;11971;51.148;4.104;2022-08-25T05:33:13;23.58;;;15.38;;
23586;SDS011;11971;51.148;4.104;2022-08-25T05:35:41;18.73;;;14.60;;
23586;SDS011;11971;51.148;4.104;2022-08-25T05:38:10;22.52;;;16.13;;
23586;SDS011;11971;51.148;4.104;2022-08-25T05:40:37;19.33;;;14.38;;
23586;SDS011;11971;51.148;4.104;2022-08-25T05:43:05;21.80;;;15.40;;
23586;SDS011;11971;51.148;4.104;2022-08-25T05:45:33;25.50;;;14.93;;
23586;SDS011;11971;51.148;4.104;2022-08-25T05:48:03;22.15;;;14.82;;
23586;SDS011;11971;51.148;4.104;2022-08-25T05:50:41;15.40;;;12.90;;
23586;SDS011;11971;51.148;4.104;2022-08-25T05:53:32;17.92;;;12.95;;
23586;SDS011;11971;51.148;4.104;2022-08-25T05:56:00;20.15;;;13.20;;
23586;SDS011;11971;51.148;4.104;2022-08-25T06:02:00;13.70;;;11.45;;
23586;SDS011;11971;51.148;4.104;2022-08-25T06:10:33;18.90;;;12.77;;
23586;SDS011;11971;51.148;4.104;2022-08-25T06:13:06;17.60;;;12.73;;
23586;SDS011;11971;51.148;4.104;2022-08-25T06:15:39;15.73;;;11.85;;
23586;SDS011;11971;51.148;4.104;2022-08-25T06:21:27;13.75;;;11.13;;
23586;SDS011;11971;51.148;4.104;2022-08-25T06:23:54;17.75;;;10.80;;
23586;SDS011;11971;51.148;4.104;2022-08-25T06:26:26;15.20;;;10.60;;
23586;SDS011;11971;51.148;4.104;2022-08-25T06:34:28;14.07;;;9.88;;
23586;SDS011;11971;51.148;4.104;2022-08-25T06:37:25;11.18;;;8.90;;
23586;SDS011;11971;51.148;4.104;2022-08-25T06:40:07;11.45;;;8.88;;
23586;SDS011;11971;51.148;4.104;2022-08-25T06:50:31;13.70;;;7.85;;
23586;SDS011;11971;51.148;4.104;2022-08-25T06:56:11;13.60;;;7.15;;
23586;SDS011;11971;51.148;4.104;2022-08-25T06:58:41;9.50;;;6.40;;
23586;SDS011;11971;51.148;4.104;2022-08-25T08:20:35;8.80;;;4.95;;
23586;SDS011;11971;51.148;4.104;2022-08-25T08:31:13;8.52;;;4.57;;
23586;SDS011;11971;51.148;4.104;2022-08-25T08:33:43;8.55;;;4.53;;
23586;SDS011;11971;51.148;4.104;2022-08-25T08:36:13;11.25;;;5.03;;
23586;SDS011;11971;51.148;4.104;2022-08-25T08:38:41;7.20;;;4.55;;
23586;SDS011;11971;51.148;4.104;2022-08-25T08:41:13;9.90;;;4.23;;
23586;SDS011;11971;51.148;4.104;2022-08-25T08:44:02;8.10;;;4.20;;
23586;SDS011;11971;51.148;4.104;2022-08-25T08:46:34;6.60;;;3.78;;
23586;SDS011;11971;51.148;4.104;2022-08-25T08:49:05;9.13;;;3.78;;
23586;SDS011;11971;51.148;4.104;2022-08-25T08:51:41;7.50;;;4.50;;
23586;SDS011;11971;51.148;4.104;2022-08-25T08:54:12;6.88;;;3.90;;
23586;SDS011;11971;51.148;4.104;2022-08-25T08:56:43;9.48;;;3.80;;
23586;SDS011;11971;51.148;4.104;2022-08-25T09:01:41;4.95;;;3.33;;
23586;SDS011;11971;51.148;4.104;2022-08-25T09:04:10;6.90;;;3.50;;
23586;SDS011;11971;51.148;4.104;2022-08-25T09:06:42;5.07;;;3.50;;
23586;SDS011;11971;51.148;4.104;2022-08-25T09:09:10;7.20;;;3.45;;
23586;SDS011;11971;51.148;4.104;2022-08-25T09:14:07;10.20;;;3.70;;
23586;SDS011;11971;51.148;4.104;2022-08-25T09:16:38;12.15;;;3.70;;
23586;SDS011;11971;51.148;4.104;2022-08-25T09:19:25;9.88;;;3.50;;
23586;SDS011;11971;51.148;4.104;2022-08-25T09:22:00;9.88;;;3.47;;
23586;SDS011;11971;51.148;4.104;2022-08-25T09:35:28;9.52;;;3.50;;
23586;SDS011;11971;51.148;4.104;2022-08-25T09:37:58;8.60;;;3.20;;
23586;SDS011;11971;51.148;4.104;2022-08-25T09:40:28;6.00;;;3.33;;
23586;SDS011;11971;51.148;4.104;2022-08-25T09:42:56;7.90;;;3.40;;
23586;SDS011;11971;51.148;4.104;2022-08-25T09:45:39;6.38;;;3.25;;
23586;SDS011;11971;51.148;4.104;2022-08-25T09:48:23;14.23;;;3.50;;
23586;SDS011;11971;51.148;4.104;2022-08-25T09:50:52;9.18;;;3.40;;
23586;SDS011;11971;51.148;4.104;2022-08-25T09:53:21;7.72;;;3.38;;
23586;SDS011;11971;51.148;4.104;2022-08-25T09:55:52;6.65;;;3.60;;
23586;SDS011;11971;51.148;4.104;2022-08-25T09:58:21;8.50;;;3.63;;
23586;SDS011;11971;51.148;4.104;2022-08-25T10:00:59;6.78;;;3.20;;
23586;SDS011;11971;51.148;4.104;2022-08-25T10:03:27;12.00;;;3.50;;
23586;SDS011;11971;51.148;4.104;2022-08-25T10:05:56;8.55;;;3.60;;
23586;SDS011;11971;51.148;4.104;2022-08-25T10:08:29;9.80;;;3.40;;
23586;SDS011;11971;51.148;4.104;2022-08-25T10:10:59;7.38;;;3.58;;
23586;SDS011;11971;51.148;4.104;2022-08-25T10:52:24;4.00;;;2.30;;
23586;SDS011;11971;51.148;4.104;2022-08-25T10:54:55;5.05;;;2.40;;
23586;SDS011;11971;51.148;4.104;2022-08-25T10:57:27;5.50;;;2.40;;
23586;SDS011;11971;51.148;4.104;2022-08-25T10:59:59;3.10;;;2.10;;
23586;SDS011;11971;51.148;4.104;2022-08-25T11:02:38;3.90;;;2.35;;
23586;SDS011;11971;51.148;4.104;2022-08-25T11:05:15;7.22;;;2.42;;
23586;SDS011;11971;51.148;4.104;2022-08-25T11:07:45;5.32;;;2.35;;
23586;SDS011;11971;51.148;4.104;2022-08-25T11:10:14;5.57;;;2.40;;
23586;SDS011;11971;51.148;4.104;2022-08-25T11:12:43;4.07;;;2.10;;
23586;SDS011;11971;51.148;4.104;2022-08-25T11:15:12;5.47;;;2.40;;
23586;SDS011;11971;51.148;4.104;2022-08-25T11:17:45;3.88;;;2.10;;
23586;SDS011;11971;51.148;4.104;2022-08-25T11:20:18;5.53;;;2.63;;
23586;SDS011;11971;51.148;4.104;2022-08-25T11:22:50;2.70;;;2.05;;
23586;SDS011;11971;51.148;4.104;2022-08-25T11:25:21;2.67;;;1.88;;
23586;SDS011;11971;51.148;4.104;2022-08-25T11:27:54;3.38;;;2.03;;
23586;SDS011;11971;51.148;4.104;2022-08-25T11:30:23;3.28;;;1.95;;
23586;SDS011;11971;51.148;4.104;2022-08-25T11:32:53;2.30;;;1.80;;
23586;SDS011;11971;51.148;4.104;2022-08-25T11:35:25;4.72;;;2.10;;
23586;SDS011;11971;51.148;4.104;2022-08-25T11:37:58;3.05;;;1.90;;
23586;SDS011;11971;51.148;4.104;2022-08-25T11:40:47;2.53;;;1.80;;
23586;SDS011;11971;51.148;4.104;2022-08-25T11:43:31;3.58;;;1.98;;
23586;SDS011;11971;51.148;4.104;2022-08-25T11:46:04;2.60;;;2.00;;
23586;SDS011;11971;51.148;4.104;2022-08-25T11:54:47;5.45;;;1.95;;
23586;SDS011;11971;51.148;4.104;2022-08-25T11:57:16;2.88;;;1.80;;
23586;SDS011;11971;51.148;4.104;2022-08-25T12:00:01;3.30;;;2.13;;
23586;SDS011;11971;51.148;4.104;2022-08-25T12:02:38;5.78;;;2.10;;
23586;SDS011;11971;51.148;4.104;2022-08-25T12:05:06;6.80;;;2.35;;
23586;SDS011;11971;51.148;4.104;2022-08-25T12:13:25;6.13;;;2.30;;
23586;SDS011;11971;51.148;4.104;2022-08-25T12:15:54;3.03;;;2.30;;
23586;SDS011;11971;51.148;4.104;2022-08-25T12:18:38;9.82;;;2.60;;
23586;SDS011;11971;51.148;4.104;2022-08-25T12:21:12;3.90;;;2.20;;
23586;SDS011;11971;51.148;4.104;2022-08-25T12:23:40;13.05;;;7.15;;
23586;SDS011;11971;51.148;4.104;2022-08-25T12:26:11;15.05;;;7.40;;
23586;SDS011;11971;51.148;4.104;2022-08-25T12:28:44;20.15;;;10.75;;
23586;SDS011;11971;51.148;4.104;2022-08-25T12:31:18;17.33;;;9.95;;
23586;SDS011;11971;51.148;4.104;2022-08-25T12:33:53;26.75;;;13.75;;
23586;SDS011;11971;51.148;4.104;2022-08-25T12:36:27;21.60;;;14.10;;
23586;SDS011;11971;51.148;4.104;2022-08-25T12:39:06;24.05;;;13.65;;
23586;SDS011;11971;51.148;4.104;2022-08-25T12:41:34;25.92;;;18.23;;
23586;SDS011;11971;51.148;4.104;2022-08-25T12:47:24;29.73;;;19.60;;
23586;SDS011;11971;51.148;4.104;2022-08-25T12:52:40;30.60;;;18.33;;
23586;SDS011;11971;51.148;4.104;2022-08-25T12:55:08;29.98;;;19.98;;
23586;SDS011;11971;51.148;4.104;2022-08-25T12:57:39;33.53;;;20.83;;
23586;SDS011;11971;51.148;4.104;2022-08-25T13:05:26;30.83;;;19.83;;
23586;SDS011;11971;51.148;4.104;2022-08-25T13:07:59;28.85;;;20.48;;
23586;SDS011;11971;51.148;4.104;2022-08-25T13:10:31;26.67;;;20.27;;
23586;SDS011;11971;51.148;4.104;2022-08-25T13:13:05;31.13;;;19.63;;
23586;SDS011;11971;51.148;4.104;2022-08-25T13:15:59;27.67;;;18.38;;
23586;SDS011;11971;51.148;4.104;2022-08-25T13:18:35;24.88;;;18.38;;
23586;SDS011;11971;51.148;4.104;2022-08-25T13:21:06;20.35;;;17.67;;
23586;SDS011;11971;51.148;4.104;2022-08-25T13:23:42;25.88;;;17.60;;
23586;SDS011;11971;51.148;4.104;2022-08-25T13:26:11;20.38;;;15.40;;
23586;SDS011;11971;51.148;4.104;2022-08-25T13:28:43;20.27;;;13.60;;
23586;SDS011;11971;51.148;4.104;2022-08-25T13:31:23;18.52;;;14.10;;
23586;SDS011;11971;51.148;4.104;2022-08-25T13:34:00;23.33;;;14.35;;
23586;SDS011;11971;51.148;4.104;2022-08-25T13:36:35;23.58;;;13.10;;
23586;SDS011;11971;51.148;4.104;2022-08-25T13:39:26;15.48;;;11.20;;
23586;SDS011;11971;51.148;4.104;2022-08-25T13:41:55;16.45;;;10.90;;
23586;SDS011;11971;51.148;4.104;2022-08-25T13:44:23;12.55;;;9.88;;
23586;SDS011;11971;51.148;4.104;2022-08-25T13:47:03;16.13;;;9.73;;
23586;SDS011;11971;51.148;4.104;2022-08-25T13:49:31;13.63;;;9.20;;
23586;SDS011;11971;51.148;4.104;2022-08-25T13:52:00;12.48;;;9.40;;
23586;SDS011;11971;51.148;4.104;2022-08-25T13:57:01;11.05;;;7.80;;
23586;SDS011;11971;51.148;4.104;2022-08-25T13:59:47;15.40;;;7.05;;
23586;SDS011;11971;51.148;4.104;2022-08-25T14:05:04;14.63;;;5.60;;
23586;SDS011;11971;51.148;4.104;2022-08-25T14:07:33;11.30;;;5.50;;
23586;SDS011;11971;51.148;4.104;2022-08-25T14:15:26;11.00;;;7.03;;
23586;SDS011;11971;51.148;4.104;2022-08-25T14:18:09;12.25;;;9.10;;
23586;SDS011;11971;51.148;4.104;2022-08-25T14:20:45;13.02;;;10.55;;
23586;SDS011;11971;51.148;4.104;2022-08-25T14:23:16;15.80;;;9.63;;
23586;SDS011;11971;51.148;4.104;2022-08-25T14:25:44;13.35;;;10.30;;
23586;SDS011;11971;51.148;4.104;2022-08-25T14:28:12;13.50;;;8.48;;
23586;SDS011;11971;51.148;4.104;2022-08-25T14:30:41;22.23;;;14.57;;
23586;SDS011;11971;51.148;4.104;2022-08-25T14:33:09;18.08;;;12.60;;
23586;SDS011;11971;51.148;4.104;2022-08-25T14:35:37;16.33;;;10.57;;
23586;SDS011;11971;51.148;4.104;2022-08-25T14:38:21;14.70;;;11.63;;
23586;SDS011;11971;51.148;4.104;2022-08-25T14:40:48;12.80;;;7.18;;
23586;SDS011;11971;51.148;4.104;2022-08-25T14:43:19;17.88;;;12.80;;
23586;SDS011;11971;51.148;4.104;2022-08-25T14:48:38;20.30;;;14.63;;
23586;SDS011;11971;51.148;4.104;2022-08-25T14:51:06;22.92;;;17.33;;
23586;SDS011;11971;51.148;4.104;2022-08-25T14:53:35;22.40;;;16.65;;
23586;SDS011;11971;51.148;4.104;2022-08-25T14:58:29;21.50;;;17.25;;
23586;SDS011;11971;51.148;4.104;2022-08-25T15:00:57;25.23;;;20.92;;
23586;SDS011;11971;51.148;4.104;2022-08-25T15:03:26;28.55;;;20.35;;
23586;SDS011;11971;51.148;4.104;2022-08-25T15:05:54;34.80;;;23.38;;
23586;SDS011;11971;51.148;4.104;2022-08-25T15:08:21;30.27;;;22.75;;
23586;SDS011;11971;51.148;4.104;2022-08-25T15:11:08;32.00;;;23.45;;
23586;SDS011;11971;51.148;4.104;2022-08-25T15:13:35;26.67;;;21.80;;
23586;SDS011;11971;51.148;4.104;2022-08-25T15:16:02;26.60;;;19.73;;
23586;SDS011;11971;51.148;4.104;2022-08-25T15:18:30;30.00;;;20.20;;
23586;SDS011;11971;51.148;4.104;2022-08-25T15:20:57;30.20;;;21.60;;
23586;SDS011;11971;51.148;4.104;2022-08-25T15:23:24;28.70;;;21.02;;
23586;SDS011;11971;51.148;4.104;2022-08-25T15:25:52;27.67;;;20.23;;
23586;SDS011;11971;51.148;4.104;2022-08-25T15:28:22;32.03;;;20.80;;
23586;SDS011;11971;51.148;4.104;2022-08-25T15:30:50;29.45;;;19.85;;
23586;SDS011;11971;51.148;4.104;2022-08-25T15:33:17;26.88;;;18.52;;
23586;SDS011;11971;51.148;4.104;2022-08-25T15:35:44;25.13;;;16.85;;
23586;SDS011;11971;51.148;4.104;2022-08-25T15:38:11;22.70;;;15.77;;
23586;SDS011;11971;51.148;4.104;2022-08-25T15:40:39;24.15;;;16.10;;
23586;SDS011;11971;51.148;4.104;2022-08-25T15:43:06;21.58;;;14.40;;
23586;SDS011;11971;51.148;4.104;2022-08-25T15:45:35;20.65;;;15.02;;
23586;SDS011;11971;51.148;4.104;2022-08-25T15:48:03;18.02;;;13.88;;
23586;SDS011;11971;51.148;4.104;2022-08-25T15:50:30;26.95;;;14.68;;
23586;SDS011;11971;51.148;4.104;2022-08-25T15:52:58;23.75;;;13.40;;
23586;SDS011;11971;51.148;4.104;2022-08-25T15:55:25;21.45;;;13.55;;
23586;SDS011;11971;51.148;4.104;2022-08-25T15:57:52;21.63;;;12.07;;
23586;SDS011;11971;51.148;4.104;2022-08-25T16:00:19;22.80;;;14.80;;
23586;SDS011;11971;51.148;4.104;2022-08-25T16:02:49;24.00;;;15.75;;
23586;SDS011;11971;51.148;4.104;2022-08-25T16:05:16;27.55;;;15.73;;
23586;SDS011;11971;51.148;4.104;2022-08-25T16:07:44;24.33;;;16.42;;
23586;SDS011;11971;51.148;4.104;2022-08-25T16:10:11;20.33;;;14.05;;
23586;SDS011;11971;51.148;4.104;2022-08-25T16:12:39;21.90;;;15.48;;
23586;SDS011;11971;51.148;4.104;2022-08-25T16:15:07;25.45;;;16.42;;
23586;SDS011;11971;51.148;4.104;2022-08-25T16:17:34;26.67;;;18.40;;
23586;SDS011;11971;51.148;4.104;2022-08-25T16:20:03;26.23;;;16.15;;
23586;SDS011;11971;51.148;4.104;2022-08-25T16:22:31;28.80;;;15.00;;
23586;SDS011;11971;51.148;4.104;2022-08-25T16:24:58;28.25;;;17.85;;
23586;SDS011;11971;51.148;4.104;2022-08-25T16:27:27;26.35;;;17.75;;
23586;SDS011;11971;51.148;4.104;2022-08-25T16:29:54;28.73;;;18.52;;
23586;SDS011;11971;51.148;4.104;2022-08-25T16:32:21;27.90;;;18.48;;
23586;SDS011;11971;51.148;4.104;2022-08-25T16:34:48;28.15;;;18.75;;
23586;SDS011;11971;51.148;4.104;2022-08-25T16:37:17;26.35;;;16.88;;
23586;SDS011;11971;51.148;4.104;2022-08-25T16:39:44;29.27;;;17.42;;
23586;SDS011;11971;51.148;4.104;2022-08-25T16:42:12;25.77;;;17.60;;
23586;SDS011;11971;51.148;4.104;2022-08-25T16:44:39;28.55;;;18.80;;
23586;SDS011;11971;51.148;4.104;2022-08-25T16:47:06;29.42;;;20.38;;
23586;SDS011;11971;51.148;4.104;2022-08-25T16:49:34;30.65;;;20.42;;
23586;SDS011;11971;51.148;4.104;2022-08-25T16:52:01;26.65;;;19.17;;
23586;SDS011;11971;51.148;4.104;2022-08-25T16:54:50;29.63;;;19.13;;
23586;SDS011;11971;51.148;4.104;2022-08-25T16:57:35;35.88;;;20.15;;
23586;SDS011;11971;51.148;4.104;2022-08-25T17:00:03;34.80;;;19.25;;
23586;SDS011;11971;51.148;4.104;2022-08-25T17:02:30;33.55;;;19.65;;
23586;SDS011;11971;51.148;4.104;2022-08-25T17:04:57;25.85;;;19.52;;
23586;SDS011;11971;51.148;4.104;2022-08-25T17:07:25;26.73;;;18.88;;
23586;SDS011;11971;51.148;4.104;2022-08-25T17:09:53;28.45;;;18.48;;
23586;SDS011;11971;51.148;4.104;2022-08-25T17:12:22;29.45;;;18.90;;
23586;SDS011;11971;51.148;4.104;2022-08-25T17:14:50;34.30;;;20.13;;
23586;SDS011;11971;51.148;4.104;2022-08-25T17:17:17;27.13;;;19.17;;
23586;SDS011;11971;51.148;4.104;2022-08-25T17:19:44;29.92;;;19.10;;
23586;SDS011;11971;51.148;4.104;2022-08-25T17:22:12;30.58;;;19.33;;
23586;SDS011;11971;51.148;4.104;2022-08-25T17:24:39;76.15;;;20.92;;
23586;SDS011;11971;51.148;4.104;2022-08-25T17:27:08;27.05;;;18.00;;
23586;SDS011;11971;51.148;4.104;2022-08-25T17:29:36;30.73;;;17.42;;
23586;SDS011;11971;51.148;4.104;2022-08-25T17:32:04;26.83;;;18.63;;
23586;SDS011;11971;51.148;4.104;2022-08-25T17:34:32;28.52;;;17.02;;
23586;SDS011;11971;51.148;4.104;2022-08-25T17:37:00;28.35;;;15.93;;
23586;SDS011;11971;51.148;4.104;2022-08-25T17:39:28;27.08;;;17.52;;
23586;SDS011;11971;51.148;4.104;2022-08-25T17:41:55;30.92;;;16.40;;
23586;SDS011;11971;51.148;4.104;2022-08-25T17:44:24;23.98;;;15.10;;
23586;SDS011;11971;51.148;4.104;2022-08-25T17:46:51;24.15;;;15.32;;
23586;SDS011;11971;51.148;4.104;2022-08-25T17:49:18;30.02;;;14.35;;
23586;SDS011;11971;51.148;4.104;2022-08-25T17:51:46;23.23;;;13.07;;
23586;SDS011;11971;51.148;4.104;2022-08-25T18:02:26;18.40;;;10.80;;
23586;SDS011;11971;51.148;4.104;2022-08-25T18:36:53;18.73;;;5.88;;
23586;SDS011;11971;51.148;4.104;2022-08-25T18:39:34;22.95;;;6.47;;
23586;SDS011;11971;51.148;4.104;2022-08-25T18:45:37;19.67;;;7.18;;
23586;SDS011;11971;51.148;4.104;2022-08-25T18:51:28;19.02;;;7.82;;
23586;SDS011;11971;51.148;4.104;2022-08-25T18:54:01;15.90;;;7.13;;
23586;SDS011;11971;51.148;4.104;2022-08-25T18:56:29;16.77;;;7.28;;
23586;SDS011;11971;51.148;4.104;2022-08-25T18:58:57;10.98;;;6.60;;
23586;SDS011;11971;51.148;4.104;2022-08-25T19:01:25;26.40;;;6.68;;
23586;SDS011;11971;51.148;4.104;2022-08-25T19:03:52;13.82;;;6.20;;
23586;SDS011;11971;51.148;4.104;2022-08-25T19:34:52;7.18;;;2.60;;
23586;SDS011;11971;51.148;4.104;2022-08-25T20:07:08;11.68;;;2.92;;
23586;SDS011;11971;51.148;4.104;2022-08-25T20:12:03;13.50;;;3.28;;